Time;durP1;ratioP1;P1;durP2;ratioP2;P2;SDS_P1;SDS_P2;PMS_P1;PMS_P2;Temp;Humidity;BMP_temperature;BMP_pressure;BME280_temperature;BME280_humidity;BME280_pressure;Samples;Min_cycle;Max_cycle;Signal;HPM_P1;HPM_P2
2022/04/18 00:02:05;;;;;;;3.25;3.05;;;;;;;3.10;97.24;100620.56;1735899;82;20897;-47
2022/04/18 00:04:34;;;;;;;3.72;3.42;;;;;;;3.07;97.36;100611.13;1715345;82;20988;-46
2022/04/18 00:07:02;;;;;;;3.20;3.00;;;;;;;3.05;97.59;100611.96;1735996;81;20909;-45
2022/04/18 00:09:33;;;;;;;5.58;3.05;;;;;;;3.05;97.59;100611.96;1735952;82;20874;-47
2022/04/18 00:12:00;;;;;;;3.50;3.20;;;;;;;3.02;97.78;100608.92;1735876;82;21079;-45
2022/04/18 00:14:27;;;;;;;4.12;3.77;;;;;;;3.01;97.83;100604.22;1715052;82;21053;-46
2022/04/18 00:16:54;;;;;;;3.52;3.22;;;;;;;3.00;98.04;100603.77;1735985;82;20984;-46
2022/04/18 00:19:22;;;;;;;3.40;3.20;;;;;;;3.00;98.09;100593.98;1735960;82;20985;-46
2022/04/18 00:21:50;;;;;;;3.75;3.42;;;;;;;2.98;98.26;100591.81;1735835;81;21460;-45
2022/04/18 00:24:20;;;;;;;3.00;2.80;;;;;;;2.97;98.18;100589.66;1735854;82;20981;-46
2022/04/18 00:26:48;;;;;;;2.85;2.65;;;;;;;2.97;98.26;100590.10;1735927;81;21012;-46
2022/04/18 00:29:15;;;;;;;3.15;2.77;;;;;;;2.94;98.59;100586.22;1736108;82;20980;-45
2022/04/18 00:31:44;;;;;;;3.17;2.90;;;;;;;2.94;98.59;100586.22;1736188;82;20917;-46
2022/04/18 00:34:14;;;;;;;2.90;2.70;;;;;;;2.92;98.60;100575.11;1735950;82;21312;-46
2022/04/18 00:36:41;;;;;;;2.75;2.65;;;;;;;2.92;98.60;100575.11;1735900;82;20968;-45
2022/04/18 00:39:09;;;;;;;3.60;3.30;;;;;;;2.94;98.79;100574.71;1735996;81;20980;-46
2022/04/18 00:41:38;;;;;;;3.12;2.92;;;;;;;2.88;99.04;100572.91;1736079;82;20969;-46
2022/04/18 00:44:05;;;;;;;3.00;2.80;;;;;;;2.85;99.07;100567.32;1736033;82;21135;-47
2022/04/18 00:46:32;;;;;;;3.37;3.08;;;;;;;2.84;99.20;100566.88;1736007;82;20972;-45
2022/04/18 00:48:59;;;;;;;3.22;3.02;;;;;;;2.84;99.20;100566.88;1736032;82;20921;-46
2022/04/18 00:51:26;;;;;;;3.08;2.87;;;;;;;2.82;99.40;100563.88;1715281;82;20885;-46
2022/04/18 00:53:55;;;;;;;3.12;2.92;;;;;;;2.80;99.55;100573.23;1735999;82;21491;-47
2022/04/18 00:56:21;;;;;;;3.05;2.85;;;;;;;2.80;99.55;100573.23;1735881;81;21142;-46
2022/04/18 00:58:49;;;;;;;2.90;2.70;;;;;;;2.76;99.79;100560.80;1735991;82;20881;-46
2022/04/18 01:01:17;;;;;;;2.92;2.77;;;;;;;2.78;100.00;100565.92;1735902;82;20933;-45
2022/04/18 01:03:45;;;;;;;3.17;2.98;;;;;;;2.76;100.00;100559.52;1735854;82;21518;-46
2022/04/18 01:06:14;;;;;;;3.08;2.77;;;;;;;2.74;99.98;100554.81;1735947;82;20925;-46
2022/04/18 01:08:42;;;;;;;3.00;2.70;;;;;;;2.74;99.98;100554.81;1735987;82;21236;-46
2022/04/18 01:11:10;;;;;;;3.00;2.80;;;;;;;2.71;100.00;100554.33;1735854;82;20925;-45
2022/04/18 01:13:55;;;;;;;2.92;2.72;;;;;;;2.69;100.00;100556.00;1736218;82;20936;-46
2022/04/18 01:16:41;;;;;;;3.02;2.83;;;;;;;2.67;100.00;100553.84;1694567;82;21455;-46
2022/04/18 01:19:12;;;;;;;3.15;2.98;;;;;;;2.67;100.00;100549.17;1717411;82;21534;-45
2022/04/18 01:21:40;;;;;;;3.17;3.02;;;;;;;2.65;100.00;100541.86;1733704;82;21470;-45
2022/04/18 01:29:41;;;;;;;2.70;2.60;;;;;;;2.63;100.00;100531.63;1735859;82;20866;-45
2022/04/18 01:32:09;;;;;;;2.83;2.62;;;;;;;2.61;100.00;100533.71;1735960;82;20924;-46
2022/04/18 01:34:35;;;;;;;2.87;2.77;;;;;;;2.61;100.00;100533.71;1736152;82;21761;-45
2022/04/18 01:37:04;;;;;;;3.58;3.33;;;;;;;2.60;100.00;100531.59;1715136;82;21011;-45
2022/04/18 01:39:31;;;;;;;2.60;2.50;;;;;;;2.57;100.00;100538.78;1735991;82;21054;-45
2022/04/18 01:41:58;;;;;;;2.83;2.72;;;;;;;2.55;100.00;100540.45;1735945;82;21012;-46
2022/04/18 01:44:25;;;;;;;2.95;2.67;;;;;;;2.54;100.00;100532.78;1736010;82;20925;-46
2022/04/18 01:46:53;;;;;;;2.85;2.65;;;;;;;2.54;100.00;100532.78;1715347;82;20921;-45
2022/04/18 01:49:21;;;;;;;3.35;3.05;;;;;;;2.54;100.00;100528.52;1733447;82;21459;-46
2022/04/18 01:51:48;;;;;;;3.05;2.85;;;;;;;2.56;100.00;100531.95;1736079;82;20937;-46
2022/04/18 01:54:15;;;;;;;3.33;3.10;;;;;;;2.55;100.00;100530.23;1736056;82;20937;-45
2022/04/18 01:56:42;;;;;;;3.15;2.90;;;;;;;2.52;100.00;100534.02;1734223;82;20988;-45
2022/04/18 01:59:08;;;;;;;2.70;2.60;;;;;;;2.51;100.00;100525.91;1735867;82;21246;-46
2022/04/18 02:01:35;;;;;;;3.30;3.02;;;;;;;2.53;100.00;100506.78;1735977;82;20885;-46
2022/04/18 02:04:02;;;;;;;2.85;2.65;;;;;;;2.51;100.00;100504.59;1736032;82;21008;-45
2022/04/18 02:06:29;;;;;;;3.00;2.80;;;;;;;2.47;100.00;100504.98;1736016;82;21479;-46
2022/04/18 02:08:56;;;;;;;2.83;2.72;;;;;;;2.46;100.00;100500.70;1736047;82;20897;-45
2022/04/18 02:11:26;;;;;;;2.65;2.55;;;;;;;2.47;100.00;100501.55;1735964;82;20894;-45
2022/04/18 02:13:53;;;;;;;2.62;2.52;;;;;;;2.43;100.00;100500.23;1735876;82;20976;-45
2022/04/18 02:16:20;;;;;;;2.87;2.67;;;;;;;2.44;100.00;100503.66;1735941;82;20933;-45
2022/04/18 02:18:49;;;;;;;3.12;2.92;;;;;;;2.42;100.00;100497.67;1735982;82;20937;-45
2022/04/18 02:21:16;;;;;;;3.30;3.00;;;;;;;2.41;100.00;100494.23;1736039;82;20885;-45
2022/04/18 02:23:44;;;;;;;2.90;2.70;;;;;;;2.41;100.00;100478.91;1715466;82;20930;-46
2022/04/18 02:26:11;;;;;;;2.92;2.80;;;;;;;2.41;100.00;100475.51;1735914;82;20901;-45
2022/04/18 02:28:40;;;;;;;3.65;2.62;;;;;;;2.38;100.00;100478.86;1736137;82;21621;-45
2022/04/18 02:31:09;;;;;;;3.12;2.92;;;;;;;2.35;100.00;100481.37;1735858;82;20964;-45
2022/04/18 02:33:36;;;;;;;2.95;2.65;;;;;;;2.33;100.00;100475.78;1736044;82;20956;-45
2022/04/18 02:36:04;;;;;;;2.95;2.75;;;;;;;2.30;100.00;100469.80;1735891;82;21230;-45
2022/04/18 02:38:32;;;;;;;3.37;3.17;;;;;;;2.30;100.00;100469.80;1735862;82;21011;-45
2022/04/18 02:40:59;;;;;;;3.62;3.10;;;;;;;2.31;100.00;100464.28;1735948;82;20897;-46
2022/04/18 02:43:26;;;;;;;3.10;2.90;;;;;;;2.30;100.00;100469.80;1741599;81;20889;-46
2022/04/18 02:45:56;;;;;;;2.87;2.77;;;;;;;2.30;100.00;100469.80;1722944;82;20937;-46
2022/04/18 02:48:43;;;;;;;2.55;2.45;;;;;;;2.28;100.00;100454.86;1749643;82;21355;-46
2022/04/18 02:51:10;;;;;;;3.20;3.00;;;;;;;2.27;100.00;100450.99;1749898;82;20880;-46
2022/04/18 02:53:37;;;;;;;2.33;2.22;;;;;;;2.26;100.00;100453.11;1749885;82;20913;-46
2022/04/18 02:56:06;;;;;;;2.98;2.77;;;;;;;2.25;100.00;100461.20;1749785;81;21401;-46
2022/04/18 02:58:35;;;;;;;2.90;2.70;;;;;;;2.25;100.00;100461.20;1749893;82;20929;-46
2022/04/18 03:01:02;;;;;;;2.50;2.40;;;;;;;2.26;100.00;100453.11;1749857;82;21227;-46
2022/04/18 03:03:29;;;;;;;2.90;2.70;;;;;;;2.25;100.00;100448.44;1749895;82;20897;-46
2022/04/18 03:05:57;;;;;;;2.87;2.60;;;;;;;2.22;100.00;100453.50;1749877;82;20928;-46
2022/04/18 03:08:23;;;;;;;2.47;2.30;;;;;;;2.22;100.00;100453.50;1749821;82;20968;-46
2022/04/18 03:11:03;;;;;;;2.65;2.47;;;;;;;2.21;100.00;100461.99;1749893;82;20881;-47
2022/04/18 03:13:36;;;;;;;2.55;2.45;;;;;;;2.21;100.00;100463.27;1749747;82;21059;-46
2022/04/18 03:16:05;;;;;;;2.80;2.70;;;;;;;2.21;100.00;100460.72;1749699;81;20956;-45
2022/04/18 03:18:32;;;;;;;3.10;2.90;;;;;;;2.22;100.00;100450.94;1749889;82;21016;-46
2022/04/18 03:21:01;;;;;;;2.67;2.40;;;;;;;2.21;100.00;100451.78;1749981;82;21015;-46
2022/04/18 03:23:28;;;;;;;3.33;3.00;;;;;;;2.23;100.00;100455.22;1749887;82;20976;-46
2022/04/18 03:25:59;;;;;;;2.80;2.70;;;;;;;2.21;100.00;100463.27;1700616;82;21304;-46
2022/04/18 03:28:29;;;;;;;2.85;2.70;;;;;;;2.21;100.00;100463.27;1722520;82;21423;-46
2022/04/18 03:30:55;;;;;;;2.90;2.70;;;;;;;2.21;100.00;100458.16;1749922;82;20913;-46
2022/04/18 03:33:24;;;;;;;2.90;2.80;;;;;;;2.23;100.00;100447.95;1749912;82;21054;-46
2022/04/18 03:41:21;;;;;;;3.30;3.10;;;;;;;2.24;100.00;100456.05;1749966;82;20849;-46
2022/04/18 03:43:51;;;;;;;2.70;2.50;;;;;;;2.22;100.00;100456.05;1720263;82;20941;-46
2022/04/18 03:46:17;;;;;;;3.50;3.25;;;;;;;2.28;100.00;100447.63;1746329;81;20921;-46
2022/04/18 03:48:44;;;;;;;3.02;2.77;;;;;;;2.28;100.00;100447.63;1741608;81;20944;-46
2022/04/18 03:51:11;;;;;;;3.08;2.87;;;;;;;2.29;100.00;100450.19;1746240;82;21257;-46
2022/04/18 03:53:39;;;;;;;3.52;2.62;;;;;;;2.26;100.00;100448.00;1746286;81;20998;-46
2022/04/18 03:56:07;;;;;;;2.80;2.70;;;;;;;2.25;100.00;100447.16;1746126;82;21414;-47
2022/04/18 03:58:37;;;;;;;2.83;2.70;;;;;;;2.28;100.00;100447.63;1745482;82;20996;-46
2022/04/18 04:01:04;;;;;;;2.90;2.80;;;;;;;2.23;100.00;100446.27;1746224;82;20964;-47
2022/04/18 04:03:31;;;;;;;2.60;2.47;;;;;;;2.21;100.00;100453.05;1746433;82;21406;-47
2022/04/18 04:05:58;;;;;;;3.02;2.80;;;;;;;2.24;100.00;100451.83;1746590;80;21483;-46
2022/04/18 04:08:28;;;;;;;3.17;2.90;;;;;;;2.22;100.00;100444.55;1746598;81;21550;-47
2022/04/18 04:10:56;;;;;;;2.67;2.58;;;;;;;2.17;100.00;100450.02;1727218;82;20969;-47
2022/04/18 04:13:26;;;;;;;3.27;3.08;;;;;;;2.14;100.00;100452.49;1746498;81;20845;-47
2022/04/18 04:15:56;;;;;;;3.30;2.67;;;;;;;2.10;100.00;100445.22;1743436;81;21175;-46
2022/04/18 04:18:25;;;;;;;3.40;3.20;;;;;;;2.11;100.00;100445.66;1746461;81;21410;-46
2022/04/18 04:20:54;;;;;;;3.25;3.05;;;;;;;2.11;100.00;100446.06;1746402;81;20853;-46
2022/04/18 04:23:22;;;;;;;3.22;3.02;;;;;;;2.10;100.00;100437.95;1746337;82;20953;-47
2022/04/18 04:25:59;;;;;;;3.17;2.90;;;;;;;2.08;100.00;100439.23;1745209;82;20929;-46
2022/04/18 04:28:28;;;;;;;3.27;3.08;;;;;;;2.09;100.00;100432.41;1744411;82;21507;-46
2022/04/18 04:30:55;;;;;;;3.05;2.85;;;;;;;2.09;100.00;100429.86;1717031;82;20945;-46
2022/04/18 04:33:22;;;;;;;2.90;2.75;;;;;;;2.09;100.00;100424.75;1746280;81;21538;-48
2022/04/18 04:35:50;;;;;;;2.72;2.62;;;;;;;2.12;100.00;100429.90;1746299;82;21423;-47
2022/04/18 04:38:18;;;;;;;3.35;3.15;;;;;;;2.12;100.00;100429.90;1746551;82;21035;-47
2022/04/18 04:40:53;;;;;;;3.35;3.15;;;;;;;2.11;100.00;100430.34;1718472;82;21191;-47
2022/04/18 04:43:41;;;;;;;2.90;2.80;;;;;;;2.10;100.00;100427.74;1747132;81;21003;-47
2022/04/18 04:46:09;;;;;;;3.17;2.98;;;;;;;2.12;100.00;100432.05;1749983;82;20933;-47
2022/04/18 04:48:37;;;;;;;3.30;3.00;;;;;;;2.10;100.00;100427.34;1748688;82;20928;-48
2022/04/18 04:51:06;;;;;;;4.15;3.10;;;;;;;2.09;100.00;100430.73;1722172;82;20987;-45
2022/04/18 04:53:35;;;;;;;3.65;3.45;;;;;;;2.08;100.00;100438.35;1749965;82;20976;-45
2022/04/18 04:56:03;;;;;;;3.50;3.30;;;;;;;2.11;100.00;100434.56;1749879;82;20901;-46
2022/04/18 04:58:32;;;;;;;3.37;3.12;;;;;;;2.12;100.00;100435.01;1722184;82;21026;-46
2022/04/18 05:01:03;;;;;;;3.50;3.30;;;;;;;2.14;100.00;100425.67;1749824;81;20983;-46
2022/04/18 05:03:36;;;;;;;3.67;3.47;;;;;;;2.23;100.00;100420.73;1749969;81;20928;-46
2022/04/18 05:06:03;;;;;;;3.77;3.50;;;;;;;2.23;100.00;100420.73;1722460;80;21142;-47
2022/04/18 05:08:32;;;;;;;4.00;3.72;;;;;;;2.26;100.00;100407.13;1743177;82;21011;-47
2022/04/18 05:11:00;;;;;;;3.25;3.00;;;;;;;2.29;100.00;100413.15;1749906;82;20967;-47
2022/04/18 05:13:30;;;;;;;3.67;3.47;;;;;;;2.34;100.00;100414.91;1722009;82;21455;-45
2022/04/18 05:15:58;;;;;;;4.20;3.90;;;;;;;2.35;100.00;100418.78;1749918;82;21034;-47
2022/04/18 05:18:42;;;;;;;3.45;3.17;;;;;;;2.34;100.00;100409.39;1749992;82;21324;-46
2022/04/18 05:21:10;;;;;;;3.80;3.60;;;;;;;2.35;100.00;100411.52;1749728;82;20937;-45
2022/04/18 05:23:38;;;;;;;3.42;3.20;;;;;;;2.33;100.00;100410.64;1749981;82;21023;-45
2022/04/18 05:26:07;;;;;;;3.42;3.22;;;;;;;2.32;100.00;100414.03;1750028;82;21549;-46
2022/04/18 05:28:35;;;;;;;3.00;2.80;;;;;;;2.32;100.00;100411.47;1750052;82;20920;-46
2022/04/18 05:31:03;;;;;;;3.33;3.12;;;;;;;2.35;100.00;100412.80;1750095;80;22024;-46
2022/04/18 05:33:31;;;;;;;3.35;3.05;;;;;;;2.43;100.00;100406.12;1722590;82;21604;-47
2022/04/18 05:36:09;;;;;;;2.90;2.70;;;;;;;2.47;100.00;100410.43;1748202;82;20952;-46
2022/04/18 05:38:38;;;;;;;3.33;3.00;;;;;;;2.48;100.00;100405.76;1749782;82;20959;-46
2022/04/18 05:41:15;;;;;;;2.72;2.62;;;;;;;2.52;100.00;100398.97;1749709;82;20972;-46
2022/04/18 05:43:46;;;;;;;2.70;2.50;;;;;;;2.58;100.00;100396.52;1749934;81;21253;-46
2022/04/18 05:46:13;;;;;;;2.77;2.58;;;;;;;2.62;100.00;100397.00;1749950;82;20920;-47
2022/04/18 05:48:40;;;;;;;2.35;2.25;;;;;;;2.68;100.00;100397.51;1749728;81;20944;-46
2022/04/18 05:51:07;;;;;;;2.65;2.45;;;;;;;2.67;100.00;100395.36;1749885;81;20861;-45
2022/04/18 05:53:34;;;;;;;2.90;2.65;;;;;;;2.66;100.00;100392.36;1750009;82;20908;-46
2022/04/18 05:56:04;;;;;;;2.52;2.33;;;;;;;2.64;100.00;100389.33;1749803;81;21576;-46
2022/04/18 05:58:35;;;;;;;2.55;2.45;;;;;;;2.64;100.00;100389.33;1698201;82;20940;-46
2022/04/18 06:01:03;;;;;;;2.77;2.58;;;;;;;2.63;100.00;100394.01;1749585;82;20908;-47
2022/04/18 06:03:30;;;;;;;7.08;2.67;;;;;;;2.63;100.00;100392.73;1750088;82;21486;-47
2022/04/18 06:05:57;;;;;;;2.37;2.17;;;;;;;2.62;100.00;100390.61;1749922;82;21011;-47
2022/04/18 06:08:24;;;;;;;2.12;2.02;;;;;;;2.58;100.00;100387.14;1749929;82;21150;-46
2022/04/18 06:10:54;;;;;;;2.60;2.40;;;;;;;2.58;100.00;100387.58;1749458;82;20924;-45
2022/04/18 06:13:25;;;;;;;2.58;2.47;;;;;;;2.58;100.00;100385.02;1747900;82;21392;-46
2022/04/18 06:15:53;;;;;;;2.60;2.50;;;;;;;2.59;100.00;100379.91;1749898;82;20924;-47
2022/04/18 06:18:22;;;;;;;2.35;2.12;;;;;;;2.63;100.00;100385.06;1749932;82;20912;-48
2022/04/18 06:20:49;;;;;;;2.45;2.20;;;;;;;2.59;100.00;100385.02;1749765;81;22058;-47
2022/04/18 06:23:16;;;;;;;2.62;2.42;;;;;;;2.59;100.00;100379.91;1749829;81;20917;-47
2022/04/18 06:25:45;;;;;;;2.35;1.98;;;;;;;2.68;100.00;100380.89;1749924;82;20979;-47
2022/04/18 06:28:12;;;;;;;2.37;2.25;;;;;;;2.80;100.00;100379.75;1749866;82;20904;-46
2022/04/18 06:30:41;;;;;;;2.77;2.22;;;;;;;2.99;100.00;100374.43;1749620;82;20972;-46
2022/04/18 06:33:20;;;;;;;2.62;2.42;;;;;;;2.99;100.00;100374.43;1720047;82;21515;-46
2022/04/18 06:35:47;;;;;;;2.20;2.10;;;;;;;3.10;100.00;100378.39;1750117;82;20944;-46
2022/04/18 06:38:15;;;;;;;2.33;2.12;;;;;;;3.16;100.00;100379.76;1749733;80;21477;-46
2022/04/18 06:40:46;;;;;;;3.17;2.05;;;;;;;3.29;100.00;100374.75;1747498;82;20892;-45
2022/04/18 06:43:16;;;;;;;1.98;1.87;;;;;;;3.34;100.00;100361.58;1739279;82;20869;-45
2022/04/18 06:45:44;;;;;;;2.17;1.98;;;;;;;3.41;100.00;100364.66;1738188;81;21160;-46
2022/04/18 06:48:12;;;;;;;2.20;2.10;;;;;;;3.48;100.00;100362.15;1735889;81;20929;-46
2022/04/18 06:50:57;;;;;;;1.95;1.85;;;;;;;3.52;100.00;100360.05;1735950;81;20988;-45
2022/04/18 06:53:42;;;;;;;2.50;2.30;;;;;;;3.66;100.00;100365.28;1736135;82;21044;-45
2022/04/18 06:59:10;;;;;;;2.27;2.08;;;;;;;3.58;99.80;100353.29;1735474;82;21225;-46
2022/04/18 07:01:36;;;;;;;2.12;2.00;;;;;;;3.59;98.74;100359.25;1735912;82;20890;-45
2022/04/18 07:04:03;;;;;;;2.17;1.98;;;;;;;3.63;99.06;100357.14;1735927;82;21557;-46
2022/04/18 07:06:31;;;;;;;2.00;1.90;;;;;;;3.74;98.45;100351.70;1739539;82;20957;-46
2022/04/18 07:08:59;;;;;;;2.17;2.08;;;;;;;3.78;97.32;100351.73;1735919;82;20984;-46
2022/04/18 07:11:44;;;;;;;1.95;1.85;;;;;;;3.77;96.35;100355.98;1735077;82;22090;-46
2022/04/18 07:14:12;;;;;;;2.40;2.30;;;;;;;3.98;96.59;100350.59;1735906;82;20984;-46
2022/04/18 07:16:42;;;;;;;3.08;1.82;;;;;;;4.04;95.68;100340.38;1735924;82;20988;-46
2022/04/18 07:19:10;;;;;;;1.90;1.80;;;;;;;4.04;95.68;100340.38;1735739;81;20941;-46
2022/04/18 07:21:38;;;;;;;1.80;1.70;;;;;;;4.04;93.98;100335.25;1735902;81;20890;-47
2022/04/18 07:24:06;;;;;;;1.50;1.45;;;;;;;4.09;93.31;100335.29;1735922;81;21408;-46
2022/04/18 07:26:34;;;;;;;2.05;1.95;;;;;;;4.15;93.56;100342.60;1735657;81;20893;-46
2022/04/18 07:29:03;;;;;;;1.75;1.65;;;;;;;4.25;92.92;100330.70;1735858;82;20972;-46
2022/04/18 07:31:31;;;;;;;1.98;1.87;;;;;;;4.28;91.51;100335.84;1735663;82;20965;-46
2022/04/18 07:33:59;;;;;;;2.62;2.42;;;;;;;4.31;91.58;100330.73;1735950;82;20933;-47
2022/04/18 07:36:26;;;;;;;1.90;1.80;;;;;;;4.31;91.24;100328.17;1735878;82;21158;-47
2022/04/18 07:38:53;;;;;;;1.80;1.70;;;;;;;4.34;91.12;100321.34;1735776;82;20980;-47
2022/04/18 07:41:24;;;;;;;1.40;1.40;;;;;;;4.38;91.73;100325.22;1735979;81;20901;-46
2022/04/18 07:43:54;;;;;;;1.90;1.80;;;;;;;4.44;92.15;100319.27;1735680;81;20858;-46
2022/04/18 07:46:21;;;;;;;1.60;1.50;;;;;;;4.47;90.85;100311.59;1735792;81;20937;-46
2022/04/18 07:48:49;;;;;;;1.35;1.35;;;;;;;4.46;90.78;100317.57;1735982;81;21078;-46
2022/04/18 07:51:36;;;;;;;1.80;1.70;;;;;;;4.50;90.15;100306.88;1735980;81;20937;-47
2022/04/18 07:54:10;;;;;;;1.67;1.57;;;;;;;4.49;89.92;100311.17;1735256;82;21004;-47
2022/04/18 07:56:38;;;;;;;1.90;1.60;;;;;;;4.57;89.47;100312.05;1714774;82;20992;-46
2022/04/18 08:00:50;;;;;;;1.77;1.67;;;;;;;4.71;88.99;100303.12;1816267;79;22576;-46
2022/04/18 08:03:17;;;;;;;1.77;1.67;;;;;;;4.76;89.01;100301.87;1789304;80;20940;-46
2022/04/18 08:05:49;;;;;;;1.50;1.50;;;;;;;4.79;87.51;100298.02;1788620;80;21058;-46
2022/04/18 08:08:18;;;;;;;1.70;1.60;;;;;;;4.79;87.55;100291.61;1788488;80;21451;-46
2022/04/18 08:10:45;;;;;;;1.60;1.60;;;;;;;4.78;88.47;100297.59;1774472;80;21014;-46
2022/04/18 08:13:12;;;;;;;1.92;1.82;;;;;;;4.82;89.83;100292.90;1760656;81;20987;-46
2022/04/18 08:15:39;;;;;;;1.77;1.67;;;;;;;4.95;89.75;100285.25;1760635;79;20888;-46
2022/04/18 08:18:11;;;;;;;1.80;1.70;;;;;;;5.02;89.26;100274.14;1753203;81;22132;-47
2022/04/18 08:20:47;;;;;;;2.00;1.90;;;;;;;5.00;88.30;100280.53;1750071;81;20900;-47
2022/04/18 08:23:14;;;;;;;1.60;1.52;;;;;;;4.97;88.98;100277.13;1760420;80;20960;-47
2022/04/18 08:25:45;;;;;;;1.22;1.22;;;;;;;4.95;89.60;100276.27;1723158;81;20884;-46
2022/04/18 08:28:30;;;;;;;1.77;1.67;;;;;;;4.92;89.73;100277.52;1760660;80;21429;-46
2022/04/18 08:30:57;;;;;;;1.65;1.65;;;;;;;4.93;89.30;100267.72;1760335;80;21068;-47
2022/04/18 08:33:29;;;;;;;1.67;1.57;;;;;;;4.92;89.77;100271.11;1744070;81;21474;-46
2022/04/18 08:35:58;;;;;;;1.50;1.40;;;;;;;5.01;89.78;100268.58;1760480;81;20944;-47
2022/04/18 08:38:26;;;;;;;1.47;1.40;;;;;;;5.00;88.09;100269.43;1760443;81;21477;-46
2022/04/18 08:41:07;;;;;;;1.82;1.55;;;;;;;4.89;87.10;100267.69;1739700;81;20960;-47
2022/04/18 08:43:35;;;;;;;1.47;1.40;;;;;;;4.87;88.45;100271.96;1760557;81;21222;-47
2022/04/18 08:46:05;;;;;;;1.65;1.55;;;;;;;4.89;88.32;100265.12;1760270;79;20951;-47
2022/04/18 08:54:03;;;;;;;;;;;;;;;4.93;87.85;100253.61;1763205;81;21548;-46
2022/04/18 08:56:30;;;;;;;1.40;1.40;;;;;;;5.01;88.71;100250.62;1755656;80;21207;-47
2022/04/18 08:58:58;;;;;;;1.60;1.50;;;;;;;5.02;88.79;100257.02;1759237;80;20982;-47
2022/04/18 09:01:24;;;;;;;2.37;1.70;;;;;;;4.96;87.32;100256.17;1750086;82;20928;-47
2022/04/18 09:03:59;;;;;;;1.67;1.57;;;;;;;4.99;87.45;100254.89;1747558;82;20869;-47
2022/04/18 09:06:33;;;;;;;2.50;1.40;;;;;;;5.05;87.98;100242.06;1749597;82;20917;-47
2022/04/18 09:09:03;;;;;;;1.65;1.55;;;;;;;5.07;87.48;100245.48;1722017;82;21132;-47
2022/04/18 09:11:33;;;;;;;1.77;1.67;;;;;;;5.11;88.02;100239.50;1749473;81;21479;-47
2022/04/18 09:14:10;;;;;;;1.82;1.75;;;;;;;5.07;87.02;100248.05;1749677;82;21746;-47
2022/04/18 09:16:38;;;;;;;1.85;1.82;;;;;;;4.99;87.09;100249.31;1722456;82;20912;-47
2022/04/18 09:19:16;;;;;;;4.05;3.60;;;;;;;4.89;88.03;100251.02;1749568;82;20905;-47
2022/04/18 09:22:00;;;;;;;2.02;1.92;;;;;;;4.87;88.76;100246.75;1749221;80;21103;-47
2022/04/18 09:24:34;;;;;;;3.10;1.95;;;;;;;4.86;88.84;100243.31;1749237;82;20881;-46
2022/04/18 09:27:16;;;;;;;1.80;1.70;;;;;;;4.74;88.84;100238.17;1748546;82;20928;-47
2022/04/18 09:29:43;;;;;;;2.72;2.52;;;;;;;4.65;89.97;100233.87;1747958;82;21411;-48
2022/04/18 09:32:13;;;;;;;4.25;3.90;;;;;;;4.69;90.05;100237.31;1721343;82;21565;-47
2022/04/18 09:34:48;;;;;;;2.37;2.12;;;;;;;4.79;90.43;100227.91;1746637;82;21157;-48
2022/04/18 09:37:19;;;;;;;1.90;1.80;;;;;;;4.89;92.00;100222.80;1722295;82;20921;-45
2022/04/18 09:39:53;;;;;;;1.85;1.75;;;;;;;5.02;91.01;100221.54;1749382;82;20932;-47
2022/04/18 09:42:28;;;;;;;2.00;1.87;;;;;;;5.13;91.72;100219.82;1749423;82;20861;-48
2022/04/18 09:45:00;;;;;;;1.92;1.82;;;;;;;5.23;90.33;100214.70;1744765;82;20892;-47
2022/04/18 09:47:32;;;;;;;1.40;1.30;;;;;;;5.10;88.57;100224.12;1749522;82;21190;-47
2022/04/18 09:50:58;;;;;;;2.15;2.05;;;;;;;5.01;89.25;100223.67;1749467;81;21363;-46
2022/04/18 09:52:43;;;;;;;1.70;1.60;;;;;;;4.99;89.87;100227.95;1743585;82;21028;-47
2022/04/18 09:55:11;;;;;;;2.00;1.90;;;;;;;4.97;89.26;100228.38;1749363;82;20865;-48
2022/04/18 09:57:39;;;;;;;1.95;1.85;;;;;;;4.81;89.18;100220.66;1750075;82;20853;-47
2022/04/18 10:00:08;;;;;;;1.92;1.82;;;;;;;4.69;90.43;100221.94;1732138;81;21143;-47
2022/04/18 10:02:37;;;;;;;1.98;1.82;;;;;;;4.67;91.13;100212.94;1770800;81;20889;-46
2022/04/18 10:05:06;;;;;;;1.90;1.80;;;;;;;4.71;92.16;100215.09;1770864;81;20937;-47
2022/04/18 10:07:34;;;;;;;2.58;2.37;;;;;;;4.76;92.14;100210.83;1771123;81;20929;-47
2022/04/18 10:10:02;;;;;;;1.87;1.77;;;;;;;4.87;92.73;100208.28;1770776;81;20897;-46
2022/04/18 10:12:31;;;;;;;1.90;1.80;;;;;;;5.00;92.35;100209.98;1771004;81;21534;-45
2022/04/18 10:14:59;;;;;;;2.00;1.90;;;;;;;5.08;91.40;100217.69;1771100;81;20886;-47
2022/04/18 10:17:25;;;;;;;1.72;1.70;;;;;;;5.06;89.31;100212.15;1770940;81;20937;-46
2022/04/18 10:20:36;;;;;;;1.70;1.67;;;;;;;5.04;90.45;100219.83;1770993;81;21015;-48
2022/04/18 10:23:38;;;;;;;2.25;2.15;;;;;;;5.06;90.67;100224.53;1771047;81;20930;-48
2022/04/18 10:26:33;;;;;;;3.08;2.95;;;;;;;5.01;89.55;100224.96;1771085;81;21320;-47
2022/04/18 10:29:18;;;;;;;2.05;1.95;;;;;;;4.92;90.86;100228.78;1770854;81;20980;-46
2022/04/18 10:31:45;;;;;;;2.55;2.37;;;;;;;4.89;91.24;100227.92;1771088;81;20980;-47
2022/04/18 10:34:17;;;;;;;2.25;2.15;;;;;;;4.93;91.00;100222.83;1770925;81;20988;-46
2022/04/18 10:36:46;;;;;;;2.62;2.42;;;;;;;4.93;91.57;100231.36;1770232;81;20873;-51
2022/04/18 10:39:13;;;;;;;2.37;2.25;;;;;;;4.95;92.10;100232.66;1770906;81;21864;-48
2022/04/18 10:41:43;;;;;;;2.47;2.27;;;;;;;4.97;91.30;100236.08;1770782;81;21368;-48
2022/04/18 10:44:17;;;;;;;2.05;1.95;;;;;;;4.97;90.81;100236.08;1770820;81;20866;-48
2022/04/18 10:47:01;;;;;;;2.22;2.12;;;;;;;4.89;90.53;100242.03;1770978;81;21436;-48
2022/04/18 10:49:31;;;;;;;2.10;2.00;;;;;;;4.86;90.78;100237.34;1745106;81;20925;-48
2022/04/18 10:52:09;;;;;;;1.90;1.80;;;;;;;4.80;91.00;100234.33;1771009;81;21201;-48
2022/04/18 10:54:33;;;;;;;2.00;1.90;;;;;;;4.76;92.21;100232.63;1770943;81;20972;-47
2022/04/18 10:57:05;;;;;;;2.20;2.10;;;;;;;4.76;93.09;100223.64;1770976;81;20999;-48
2022/04/18 10:59:35;;;;;;;1.90;1.80;;;;;;;4.78;92.97;100219.38;1768500;81;20984;-48
2022/04/18 11:02:04;;;;;;;1.80;1.70;;;;;;;4.79;92.06;100230.06;1746651;81;20924;-48
2022/04/18 11:04:44;;;;;;;2.15;2.05;;;;;;;4.78;91.79;100227.48;1746689;82;21081;-48
2022/04/18 11:07:11;;;;;;;1.42;1.42;;;;;;;4.83;91.12;100225.36;1746651;82;20881;-48
2022/04/18 11:09:44;;;;;;;3.42;1.45;;;;;;;4.81;90.77;100226.23;1746629;82;20925;-48
2022/04/18 11:12:17;;;;;;;1.50;1.40;;;;;;;4.84;91.74;100232.20;1746854;82;20862;-48
2022/04/18 11:14:55;;;;;;;1.57;1.47;;;;;;;4.85;91.65;100223.65;1726141;80;20893;-48
2022/04/18 11:17:29;;;;;;;1.37;1.37;;;;;;;4.87;92.29;100228.35;1725638;82;21161;-48
2022/04/18 11:20:16;;;;;;;1.67;1.57;;;;;;;4.89;92.44;100236.91;1746683;82;21430;-48
2022/04/18 11:23:07;;;;;;;4.10;1.62;;;;;;;4.84;91.78;100236.05;1662727;85;20956;-48
2022/04/18 11:25:58;;;;;;;1.25;1.25;;;;;;;4.74;91.19;100239.46;1733902;82;20933;-47
2022/04/18 11:28:39;;;;;;;1.60;1.50;;;;;;;4.68;92.36;100236.89;1746826;82;21430;-47
2022/04/18 11:31:10;;;;;;;1.57;1.57;;;;;;;4.68;92.27;100244.58;1746696;82;21355;-47
2022/04/18 11:33:42;;;;;;;3.60;2.02;;;;;;;4.60;92.42;100241.99;1746747;82;21356;-47
2022/04/18 11:36:11;;;;;;;1.80;1.70;;;;;;;4.54;93.41;100235.12;1746819;82;20881;-47
2022/04/18 11:38:38;;;;;;;2.00;1.90;;;;;;;4.53;94.66;100224.45;1746760;82;20968;-47
2022/04/18 11:41:10;;;;;;;2.12;2.02;;;;;;;4.52;94.96;100231.70;1746649;82;21003;-48
2022/04/18 11:43:37;;;;;;;2.45;2.25;;;;;;;4.50;95.67;100210.34;1746764;82;21786;-48
2022/04/18 11:46:07;;;;;;;4.83;3.10;;;;;;;4.55;96.75;100208.64;1746891;82;21494;-48
2022/04/18 11:48:35;;;;;;;5.05;4.25;;;;;;;4.61;97.33;100210.37;1746724;82;20917;-48
2022/04/18 11:51:03;;;;;;;3.33;2.92;;;;;;;4.67;97.57;100217.20;1746848;82;21525;-49
2022/04/18 11:53:31;;;;;;;3.80;2.37;;;;;;;4.73;97.80;100206.98;1746727;82;21327;-47
2022/04/18 11:55:57;;;;;;;2.00;1.90;;;;;;;4.72;97.63;100208.67;1746529;82;21661;-47
2022/04/18 11:58:26;;;;;;;2.00;1.90;;;;;;;4.68;97.62;100212.09;1746623;82;21439;-49
2022/04/18 12:09:14;;;;;;;1.40;1.40;;;;;;;4.47;98.05;100200.09;1746991;80;21166;-48
2022/04/18 12:11:41;;;;;;;2.05;1.40;;;;;;;4.47;97.93;100193.67;1746518;81;21112;-49
2022/04/18 12:14:09;;;;;;;1.70;1.60;;;;;;;4.43;97.36;100194.53;1746788;82;20909;-47